sensor_id;sensor_type;location;lat;lon;timestamp;P1;durP1;ratioP1;P2;durP2;ratioP2
60582;SDS011;46415;47.536;19.066;2023-01-23T00:03:02;17.50;;;7.65;;
60582;SDS011;46415;47.536;19.066;2023-01-23T00:06:06;12.25;;;6.97;;
60582;SDS011;46415;47.536;19.066;2023-01-23T00:09:11;6.65;;;5.62;;
60582;SDS011;46415;47.536;19.066;2023-01-23T00:12:14;10.82;;;5.72;;
60582;SDS011;46415;47.536;19.066;2023-01-23T00:15:17;10.13;;;6.82;;
60582;SDS011;46415;47.536;19.066;2023-01-23T00:18:20;14.02;;;7.20;;
60582;SDS011;46415;47.536;19.066;2023-01-23T00:21:24;14.00;;;7.03;;
60582;SDS011;46415;47.536;19.066;2023-01-23T00:24:29;10.60;;;6.53;;
60582;SDS011;46415;47.536;19.066;2023-01-23T00:27:32;10.57;;;6.70;;
60582;SDS011;46415;47.536;19.066;2023-01-23T00:30:35;11.85;;;6.80;;
60582;SDS011;46415;47.536;19.066;2023-01-23T00:33:38;11.10;;;7.10;;
60582;SDS011;46415;47.536;19.066;2023-01-23T00:36:43;12.00;;;5.93;;
60582;SDS011;46415;47.536;19.066;2023-01-23T00:39:46;8.15;;;6.00;;
60582;SDS011;46415;47.536;19.066;2023-01-23T00:42:52;11.73;;;6.53;;
60582;SDS011;46415;47.536;19.066;2023-01-23T00:45:55;9.05;;;6.43;;
60582;SDS011;46415;47.536;19.066;2023-01-23T00:48:59;12.70;;;5.82;;
60582;SDS011;46415;47.536;19.066;2023-01-23T00:52:01;11.50;;;6.30;;
60582;SDS011;46415;47.536;19.066;2023-01-23T00:55:04;8.32;;;5.53;;
60582;SDS011;46415;47.536;19.066;2023-01-23T00:58:08;9.35;;;6.30;;
60582;SDS011;46415;47.536;19.066;2023-01-23T01:01:11;9.60;;;5.82;;
60582;SDS011;46415;47.536;19.066;2023-01-23T01:04:15;14.55;;;7.03;;
60582;SDS011;46415;47.536;19.066;2023-01-23T01:07:18;10.45;;;7.12;;
60582;SDS011;46415;47.536;19.066;2023-01-23T01:10:22;9.90;;;6.07;;
60582;SDS011;46415;47.536;19.066;2023-01-23T01:13:30;7.57;;;5.97;;
60582;SDS011;46415;47.536;19.066;2023-01-23T01:16:33;12.37;;;6.12;;
60582;SDS011;46415;47.536;19.066;2023-01-23T01:19:37;12.57;;;6.05;;
60582;SDS011;46415;47.536;19.066;2023-01-23T01:22:40;7.55;;;5.03;;
60582;SDS011;46415;47.536;19.066;2023-01-23T01:25:46;10.55;;;6.82;;
60582;SDS011;46415;47.536;19.066;2023-01-23T01:28:49;11.02;;;6.78;;
60582;SDS011;46415;47.536;19.066;2023-01-23T01:31:52;9.02;;;5.93;;
60582;SDS011;46415;47.536;19.066;2023-01-23T01:34:55;9.90;;;6.10;;
60582;SDS011;46415;47.536;19.066;2023-01-23T01:37:58;12.13;;;6.12;;
60582;SDS011;46415;47.536;19.066;2023-01-23T01:41:02;8.55;;;6.25;;
60582;SDS011;46415;47.536;19.066;2023-01-23T01:44:08;10.68;;;7.05;;
60582;SDS011;46415;47.536;19.066;2023-01-23T01:47:21;9.88;;;5.35;;
60582;SDS011;46415;47.536;19.066;2023-01-23T01:50:24;9.98;;;6.93;;
60582;SDS011;46415;47.536;19.066;2023-01-23T01:53:27;11.93;;;7.25;;
60582;SDS011;46415;47.536;19.066;2023-01-23T01:56:34;10.48;;;5.90;;
60582;SDS011;46415;47.536;19.066;2023-01-23T02:03:14;9.07;;;5.47;;
60582;SDS011;46415;47.536;19.066;2023-01-23T02:06:19;8.07;;;5.72;;
60582;SDS011;46415;47.536;19.066;2023-01-23T02:09:24;11.32;;;6.43;;
60582;SDS011;46415;47.536;19.066;2023-01-23T02:12:28;9.45;;;6.20;;
60582;SDS011;46415;47.536;19.066;2023-01-23T02:15:33;10.95;;;5.68;;
60582;SDS011;46415;47.536;19.066;2023-01-23T02:18:37;11.48;;;6.25;;
60582;SDS011;46415;47.536;19.066;2023-01-23T02:21:47;10.07;;;6.47;;
60582;SDS011;46415;47.536;19.066;2023-01-23T02:25:01;9.57;;;5.95;;
60582;SDS011;46415;47.536;19.066;2023-01-23T02:28:06;9.82;;;5.87;;
60582;SDS011;46415;47.536;19.066;2023-01-23T02:31:10;8.85;;;4.68;;
60582;SDS011;46415;47.536;19.066;2023-01-23T02:34:14;6.85;;;5.25;;
60582;SDS011;46415;47.536;19.066;2023-01-23T02:37:17;7.82;;;5.60;;
60582;SDS011;46415;47.536;19.066;2023-01-23T02:40:33;7.70;;;4.50;;
60582;SDS011;46415;47.536;19.066;2023-01-23T02:43:41;6.87;;;5.57;;
60582;SDS011;46415;47.536;19.066;2023-01-23T02:46:45;7.28;;;4.95;;
60582;SDS011;46415;47.536;19.066;2023-01-23T02:49:48;10.48;;;5.22;;
60582;SDS011;46415;47.536;19.066;2023-01-23T02:52:51;9.10;;;5.55;;
60582;SDS011;46415;47.536;19.066;2023-01-23T02:55:56;10.25;;;4.80;;
60582;SDS011;46415;47.536;19.066;2023-01-23T02:59:00;10.18;;;5.10;;
60582;SDS011;46415;47.536;19.066;2023-01-23T03:02:24;6.45;;;4.43;;
60582;SDS011;46415;47.536;19.066;2023-01-23T03:05:27;7.47;;;4.93;;
60582;SDS011;46415;47.536;19.066;2023-01-23T03:08:30;8.27;;;5.00;;
60582;SDS011;46415;47.536;19.066;2023-01-23T03:11:38;9.07;;;5.63;;
60582;SDS011;46415;47.536;19.066;2023-01-23T03:14:42;7.82;;;4.25;;
60582;SDS011;46415;47.536;19.066;2023-01-23T03:17:45;7.90;;;4.15;;
60582;SDS011;46415;47.536;19.066;2023-01-23T03:20:49;5.95;;;4.18;;
60582;SDS011;46415;47.536;19.066;2023-01-23T03:23:52;6.65;;;4.05;;
60582;SDS011;46415;47.536;19.066;2023-01-23T03:26:54;5.10;;;3.87;;
60582;SDS011;46415;47.536;19.066;2023-01-23T03:29:58;5.40;;;3.62;;
60582;SDS011;46415;47.536;19.066;2023-01-23T03:33:25;5.35;;;4.25;;
60582;SDS011;46415;47.536;19.066;2023-01-23T03:36:29;8.73;;;3.65;;
60582;SDS011;46415;47.536;19.066;2023-01-23T03:39:32;7.28;;;4.43;;
60582;SDS011;46415;47.536;19.066;2023-01-23T03:42:54;6.07;;;3.92;;
60582;SDS011;46415;47.536;19.066;2023-01-23T03:45:57;3.47;;;3.10;;
60582;SDS011;46415;47.536;19.066;2023-01-23T03:49:02;6.40;;;3.22;;
60582;SDS011;46415;47.536;19.066;2023-01-23T03:52:05;4.05;;;3.65;;
60582;SDS011;46415;47.536;19.066;2023-01-23T03:55:08;5.40;;;3.58;;
60582;SDS011;46415;47.536;19.066;2023-01-23T03:58:11;4.00;;;3.00;;
60582;SDS011;46415;47.536;19.066;2023-01-23T04:01:14;6.20;;;3.75;;
60582;SDS011;46415;47.536;19.066;2023-01-23T04:04:18;4.55;;;3.50;;
60582;SDS011;46415;47.536;19.066;2023-01-23T04:07:21;3.83;;;3.10;;
60582;SDS011;46415;47.536;19.066;2023-01-23T04:10:24;4.97;;;3.20;;
60582;SDS011;46415;47.536;19.066;2023-01-23T04:13:27;4.53;;;4.07;;
60582;SDS011;46415;47.536;19.066;2023-01-23T04:16:30;3.70;;;3.22;;
60582;SDS011;46415;47.536;19.066;2023-01-23T04:19:33;4.85;;;3.45;;
60582;SDS011;46415;47.536;19.066;2023-01-23T04:22:37;3.87;;;3.22;;
60582;SDS011;46415;47.536;19.066;2023-01-23T04:25:40;3.78;;;2.47;;
60582;SDS011;46415;47.536;19.066;2023-01-23T04:28:47;3.92;;;2.42;;
60582;SDS011;46415;47.536;19.066;2023-01-23T04:31:49;3.72;;;2.95;;
60582;SDS011;46415;47.536;19.066;2023-01-23T04:34:53;3.12;;;2.17;;
60582;SDS011;46415;47.536;19.066;2023-01-23T04:37:55;3.22;;;2.87;;
60582;SDS011;46415;47.536;19.066;2023-01-23T04:41:01;3.00;;;2.42;;
60582;SDS011;46415;47.536;19.066;2023-01-23T04:44:05;3.37;;;2.83;;
60582;SDS011;46415;47.536;19.066;2023-01-23T04:47:24;3.28;;;2.58;;
60582;SDS011;46415;47.536;19.066;2023-01-23T04:50:27;2.35;;;2.15;;
60582;SDS011;46415;47.536;19.066;2023-01-23T04:53:30;3.55;;;3.25;;
60582;SDS011;46415;47.536;19.066;2023-01-23T04:56:33;2.12;;;2.03;;
60582;SDS011;46415;47.536;19.066;2023-01-23T04:59:37;5.10;;;2.65;;
60582;SDS011;46415;47.536;19.066;2023-01-23T05:02:40;3.45;;;2.87;;
60582;SDS011;46415;47.536;19.066;2023-01-23T05:05:44;2.97;;;2.30;;
60582;SDS011;46415;47.536;19.066;2023-01-23T05:08:49;3.22;;;2.62;;
60582;SDS011;46415;47.536;19.066;2023-01-23T05:11:54;3.30;;;2.33;;
60582;SDS011;46415;47.536;19.066;2023-01-23T05:14:58;5.85;;;2.92;;
60582;SDS011;46415;47.536;19.066;2023-01-23T05:18:01;2.80;;;2.30;;
60582;SDS011;46415;47.536;19.066;2023-01-23T05:21:04;3.65;;;2.67;;
60582;SDS011;46415;47.536;19.066;2023-01-23T05:24:07;2.92;;;2.70;;
60582;SDS011;46415;47.536;19.066;2023-01-23T05:27:11;3.20;;;2.42;;
60582;SDS011;46415;47.536;19.066;2023-01-23T05:30:15;3.70;;;2.37;;
60582;SDS011;46415;47.536;19.066;2023-01-23T05:33:19;4.15;;;2.90;;
60582;SDS011;46415;47.536;19.066;2023-01-23T05:36:22;3.10;;;2.90;;
60582;SDS011;46415;47.536;19.066;2023-01-23T05:39:25;2.80;;;2.47;;
60582;SDS011;46415;47.536;19.066;2023-01-23T05:42:28;4.03;;;2.25;;
60582;SDS011;46415;47.536;19.066;2023-01-23T05:45:32;3.53;;;2.58;;
60582;SDS011;46415;47.536;19.066;2023-01-23T05:48:38;2.33;;;2.12;;
60582;SDS011;46415;47.536;19.066;2023-01-23T05:51:42;6.18;;;2.60;;
60582;SDS011;46415;47.536;19.066;2023-01-23T05:54:45;4.10;;;2.50;;
60582;SDS011;46415;47.536;19.066;2023-01-23T05:57:48;2.78;;;2.58;;
60582;SDS011;46415;47.536;19.066;2023-01-23T06:00:57;3.37;;;2.65;;
60582;SDS011;46415;47.536;19.066;2023-01-23T06:04:02;3.10;;;2.37;;
60582;SDS011;46415;47.536;19.066;2023-01-23T06:07:06;3.55;;;2.30;;
60582;SDS011;46415;47.536;19.066;2023-01-23T06:10:17;2.92;;;2.58;;
60582;SDS011;46415;47.536;19.066;2023-01-23T06:13:20;2.97;;;2.47;;
60582;SDS011;46415;47.536;19.066;2023-01-23T06:16:23;3.15;;;2.78;;
60582;SDS011;46415;47.536;19.066;2023-01-23T06:19:25;3.53;;;2.53;;
60582;SDS011;46415;47.536;19.066;2023-01-23T06:22:29;5.70;;;2.58;;
60582;SDS011;46415;47.536;19.066;2023-01-23T06:25:33;3.97;;;2.45;;
60582;SDS011;46415;47.536;19.066;2023-01-23T06:28:39;4.60;;;3.30;;
60582;SDS011;46415;47.536;19.066;2023-01-23T06:31:41;2.72;;;2.47;;
60582;SDS011;46415;47.536;19.066;2023-01-23T06:34:44;4.15;;;2.55;;
60582;SDS011;46415;47.536;19.066;2023-01-23T06:37:48;2.80;;;2.30;;
60582;SDS011;46415;47.536;19.066;2023-01-23T06:40:51;4.25;;;3.15;;
60582;SDS011;46415;47.536;19.066;2023-01-23T06:43:55;6.90;;;3.03;;
60582;SDS011;46415;47.536;19.066;2023-01-23T06:47:00;4.28;;;2.92;;
60582;SDS011;46415;47.536;19.066;2023-01-23T06:50:02;4.25;;;2.80;;
60582;SDS011;46415;47.536;19.066;2023-01-23T06:53:09;6.30;;;3.30;;
60582;SDS011;46415;47.536;19.066;2023-01-23T06:56:18;4.25;;;2.97;;
60582;SDS011;46415;47.536;19.066;2023-01-23T06:59:21;5.03;;;2.92;;
60582;SDS011;46415;47.536;19.066;2023-01-23T07:02:23;4.55;;;2.92;;
60582;SDS011;46415;47.536;19.066;2023-01-23T07:05:27;3.00;;;2.62;;
60582;SDS011;46415;47.536;19.066;2023-01-23T07:08:30;3.60;;;3.15;;
60582;SDS011;46415;47.536;19.066;2023-01-23T07:11:33;3.55;;;2.92;;
60582;SDS011;46415;47.536;19.066;2023-01-23T07:14:37;3.00;;;2.53;;
60582;SDS011;46415;47.536;19.066;2023-01-23T07:17:41;3.30;;;2.75;;
60582;SDS011;46415;47.536;19.066;2023-01-23T07:20:44;2.95;;;2.65;;
60582;SDS011;46415;47.536;19.066;2023-01-23T07:23:47;3.70;;;2.92;;
60582;SDS011;46415;47.536;19.066;2023-01-23T07:26:52;3.20;;;2.90;;
60582;SDS011;46415;47.536;19.066;2023-01-23T07:29:54;3.62;;;2.83;;
60582;SDS011;46415;47.536;19.066;2023-01-23T07:32:58;4.80;;;3.20;;
60582;SDS011;46415;47.536;19.066;2023-01-23T07:36:04;4.85;;;3.30;;
60582;SDS011;46415;47.536;19.066;2023-01-23T07:39:08;5.07;;;3.45;;
60582;SDS011;46415;47.536;19.066;2023-01-23T07:42:11;3.17;;;2.87;;
60582;SDS011;46415;47.536;19.066;2023-01-23T07:45:15;4.20;;;3.15;;
60582;SDS011;46415;47.536;19.066;2023-01-23T07:48:18;5.05;;;3.12;;
60582;SDS011;46415;47.536;19.066;2023-01-23T07:51:21;3.97;;;3.08;;
60582;SDS011;46415;47.536;19.066;2023-01-23T07:54:27;2.67;;;2.35;;
60582;SDS011;46415;47.536;19.066;2023-01-23T07:57:29;4.12;;;2.70;;
60582;SDS011;46415;47.536;19.066;2023-01-23T08:00:33;2.85;;;2.58;;
60582;SDS011;46415;47.536;19.066;2023-01-23T08:03:36;4.55;;;3.00;;
60582;SDS011;46415;47.536;19.066;2023-01-23T08:06:39;2.67;;;2.22;;
60582;SDS011;46415;47.536;19.066;2023-01-23T08:09:42;6.28;;;2.75;;
60582;SDS011;46415;47.536;19.066;2023-01-23T08:12:44;5.82;;;2.92;;
60582;SDS011;46415;47.536;19.066;2023-01-23T08:15:51;4.57;;;2.92;;
60582;SDS011;46415;47.536;19.066;2023-01-23T08:18:54;5.30;;;3.40;;
60582;SDS011;46415;47.536;19.066;2023-01-23T08:21:57;5.87;;;3.10;;
60582;SDS011;46415;47.536;19.066;2023-01-23T08:25:00;4.32;;;3.25;;
60582;SDS011;46415;47.536;19.066;2023-01-23T08:28:03;4.85;;;3.33;;
60582;SDS011;46415;47.536;19.066;2023-01-23T08:31:06;3.22;;;2.58;;
60582;SDS011;46415;47.536;19.066;2023-01-23T08:34:12;2.80;;;2.58;;
60582;SDS011;46415;47.536;19.066;2023-01-23T08:37:14;4.55;;;3.47;;
60582;SDS011;46415;47.536;19.066;2023-01-23T08:40:17;2.95;;;2.75;;
60582;SDS011;46415;47.536;19.066;2023-01-23T08:43:21;3.47;;;3.05;;
60582;SDS011;46415;47.536;19.066;2023-01-23T08:46:24;3.65;;;2.58;;
60582;SDS011;46415;47.536;19.066;2023-01-23T08:49:27;3.55;;;3.20;;
60582;SDS011;46415;47.536;19.066;2023-01-23T08:52:30;7.00;;;3.40;;
60582;SDS011;46415;47.536;19.066;2023-01-23T08:55:32;3.42;;;3.10;;
60582;SDS011;46415;47.536;19.066;2023-01-23T08:58:37;4.90;;;3.17;;
60582;SDS011;46415;47.536;19.066;2023-01-23T09:01:40;4.68;;;3.15;;
60582;SDS011;46415;47.536;19.066;2023-01-23T09:04:42;4.57;;;3.45;;
60582;SDS011;46415;47.536;19.066;2023-01-23T09:07:46;5.28;;;3.37;;
60582;SDS011;46415;47.536;19.066;2023-01-23T09:10:49;3.87;;;2.85;;
60582;SDS011;46415;47.536;19.066;2023-01-23T09:13:52;4.78;;;3.20;;
60582;SDS011;46415;47.536;19.066;2023-01-23T09:16:55;4.25;;;2.75;;
60582;SDS011;46415;47.536;19.066;2023-01-23T09:19:58;3.55;;;2.75;;
60582;SDS011;46415;47.536;19.066;2023-01-23T09:23:02;4.30;;;3.00;;
60582;SDS011;46415;47.536;19.066;2023-01-23T09:26:05;3.40;;;2.80;;
60582;SDS011;46415;47.536;19.066;2023-01-23T09:29:10;6.95;;;2.92;;
60582;SDS011;46415;47.536;19.066;2023-01-23T09:32:13;5.65;;;2.78;;
60582;SDS011;46415;47.536;19.066;2023-01-23T09:35:16;4.10;;;3.28;;
60582;SDS011;46415;47.536;19.066;2023-01-23T09:38:19;5.80;;;3.12;;
60582;SDS011;46415;47.536;19.066;2023-01-23T09:41:22;4.07;;;3.17;;
60582;SDS011;46415;47.536;19.066;2023-01-23T09:44:37;5.25;;;3.22;;
60582;SDS011;46415;47.536;19.066;2023-01-23T09:47:48;4.60;;;3.42;;
60582;SDS011;46415;47.536;19.066;2023-01-23T09:50:55;5.25;;;3.37;;
60582;SDS011;46415;47.536;19.066;2023-01-23T09:54:39;3.17;;;2.80;;
60582;SDS011;46415;47.536;19.066;2023-01-23T09:57:41;5.22;;;3.40;;
60582;SDS011;46415;47.536;19.066;2023-01-23T10:00:50;6.72;;;3.72;;
60582;SDS011;46415;47.536;19.066;2023-01-23T10:03:53;6.25;;;4.30;;
60582;SDS011;46415;47.536;19.066;2023-01-23T10:10:02;5.35;;;4.47;;
60582;SDS011;46415;47.536;19.066;2023-01-23T10:13:12;6.32;;;5.28;;
60582;SDS011;46415;47.536;19.066;2023-01-23T10:16:27;5.80;;;4.78;;
60582;SDS011;46415;47.536;19.066;2023-01-23T10:19:59;6.55;;;4.80;;
60582;SDS011;46415;47.536;19.066;2023-01-23T10:23:20;5.55;;;4.50;;
60582;SDS011;46415;47.536;19.066;2023-01-23T10:26:29;6.57;;;4.90;;
60582;SDS011;46415;47.536;19.066;2023-01-23T10:29:38;6.55;;;5.10;;
60582;SDS011;46415;47.536;19.066;2023-01-23T10:36:02;7.68;;;5.40;;
60582;SDS011;46415;47.536;19.066;2023-01-23T10:39:30;5.95;;;5.15;;
60582;SDS011;46415;47.536;19.066;2023-01-23T10:42:43;6.82;;;4.93;;
60582;SDS011;46415;47.536;19.066;2023-01-23T10:45:47;7.60;;;5.10;;
60582;SDS011;46415;47.536;19.066;2023-01-23T10:48:51;6.07;;;4.78;;
60582;SDS011;46415;47.536;19.066;2023-01-23T10:51:55;7.53;;;4.82;;
60582;SDS011;46415;47.536;19.066;2023-01-23T10:54:58;5.95;;;4.72;;
60582;SDS011;46415;47.536;19.066;2023-01-23T10:58:01;6.90;;;4.80;;
60582;SDS011;46415;47.536;19.066;2023-01-23T11:01:06;5.32;;;4.82;;
60582;SDS011;46415;47.536;19.066;2023-01-23T11:04:29;6.20;;;4.90;;
60582;SDS011;46415;47.536;19.066;2023-01-23T11:07:36;5.82;;;5.00;;
60582;SDS011;46415;47.536;19.066;2023-01-23T11:10:41;5.95;;;5.00;;
60582;SDS011;46415;47.536;19.066;2023-01-23T11:13:45;5.50;;;4.37;;
60582;SDS011;46415;47.536;19.066;2023-01-23T11:20:27;5.37;;;4.53;;
60582;SDS011;46415;47.536;19.066;2023-01-23T11:23:40;5.00;;;3.78;;
60582;SDS011;46415;47.536;19.066;2023-01-23T11:26:43;6.12;;;3.80;;
60582;SDS011;46415;47.536;19.066;2023-01-23T11:40:04;5.87;;;2.92;;
60582;SDS011;46415;47.536;19.066;2023-01-23T11:43:15;4.07;;;3.67;;
60582;SDS011;46415;47.536;19.066;2023-01-23T11:49:48;4.68;;;3.50;;
60582;SDS011;46415;47.536;19.066;2023-01-23T12:04:03;5.47;;;3.78;;
60582;SDS011;46415;47.536;19.066;2023-01-23T12:07:09;4.37;;;3.83;;
60582;SDS011;46415;47.536;19.066;2023-01-23T12:10:40;4.53;;;3.58;;
60582;SDS011;46415;47.536;19.066;2023-01-23T12:18:02;3.70;;;3.40;;
60582;SDS011;46415;47.536;19.066;2023-01-23T12:21:26;4.50;;;3.42;;
60582;SDS011;46415;47.536;19.066;2023-01-23T12:24:44;4.80;;;3.30;;
60582;SDS011;46415;47.536;19.066;2023-01-23T12:35:10;3.37;;;2.90;;
60582;SDS011;46415;47.536;19.066;2023-01-23T12:38:31;3.85;;;3.50;;
60582;SDS011;46415;47.536;19.066;2023-01-23T12:41:52;2.83;;;2.55;;
60582;SDS011;46415;47.536;19.066;2023-01-23T12:45:26;3.55;;;3.28;;
60582;SDS011;46415;47.536;19.066;2023-01-23T12:48:38;4.07;;;3.05;;
60582;SDS011;46415;47.536;19.066;2023-01-23T12:51:48;3.95;;;3.53;;
60582;SDS011;46415;47.536;19.066;2023-01-23T12:55:03;3.83;;;3.42;;
60582;SDS011;46415;47.536;19.066;2023-01-23T12:58:15;4.25;;;3.25;;
60582;SDS011;46415;47.536;19.066;2023-01-23T13:01:23;4.10;;;3.35;;
60582;SDS011;46415;47.536;19.066;2023-01-23T13:04:45;5.53;;;3.10;;
60582;SDS011;46415;47.536;19.066;2023-01-23T13:12:22;4.00;;;3.40;;
60582;SDS011;46415;47.536;19.066;2023-01-23T13:15:33;4.15;;;3.30;;
60582;SDS011;46415;47.536;19.066;2023-01-23T13:19:43;5.37;;;3.20;;
60582;SDS011;46415;47.536;19.066;2023-01-23T13:26:24;3.75;;;3.45;;
60582;SDS011;46415;47.536;19.066;2023-01-23T13:29:48;4.10;;;3.10;;
60582;SDS011;46415;47.536;19.066;2023-01-23T13:32:53;5.15;;;3.47;;
60582;SDS011;46415;47.536;19.066;2023-01-23T13:36:18;4.85;;;3.42;;
60582;SDS011;46415;47.536;19.066;2023-01-23T13:39:29;3.95;;;3.12;;
60582;SDS011;46415;47.536;19.066;2023-01-23T13:42:33;4.05;;;3.30;;
60582;SDS011;46415;47.536;19.066;2023-01-23T13:45:37;3.92;;;3.35;;
60582;SDS011;46415;47.536;19.066;2023-01-23T13:48:44;3.83;;;3.42;;
60582;SDS011;46415;47.536;19.066;2023-01-23T13:52:30;3.30;;;3.05;;
60582;SDS011;46415;47.536;19.066;2023-01-23T13:56:16;4.40;;;3.50;;
60582;SDS011;46415;47.536;19.066;2023-01-23T13:59:54;3.45;;;2.97;;
60582;SDS011;46415;47.536;19.066;2023-01-23T14:06:55;3.97;;;3.20;;
60582;SDS011;46415;47.536;19.066;2023-01-23T14:10:23;3.78;;;3.28;;
60582;SDS011;46415;47.536;19.066;2023-01-23T14:13:29;3.95;;;3.55;;
60582;SDS011;46415;47.536;19.066;2023-01-23T14:17:01;5.22;;;3.08;;
60582;SDS011;46415;47.536;19.066;2023-01-23T14:20:18;3.50;;;3.20;;
60582;SDS011;46415;47.536;19.066;2023-01-23T14:23:25;4.62;;;3.12;;
60582;SDS011;46415;47.536;19.066;2023-01-23T14:26:32;5.03;;;3.03;;
60582;SDS011;46415;47.536;19.066;2023-01-23T14:29:36;4.20;;;3.60;;
60582;SDS011;46415;47.536;19.066;2023-01-23T14:32:39;6.22;;;3.65;;
60582;SDS011;46415;47.536;19.066;2023-01-23T14:35:42;6.85;;;4.35;;
60582;SDS011;46415;47.536;19.066;2023-01-23T14:38:46;5.05;;;4.00;;
60582;SDS011;46415;47.536;19.066;2023-01-23T14:41:52;5.40;;;3.17;;
60582;SDS011;46415;47.536;19.066;2023-01-23T14:44:59;7.00;;;3.08;;
60582;SDS011;46415;47.536;19.066;2023-01-23T14:48:04;4.12;;;3.75;;
60582;SDS011;46415;47.536;19.066;2023-01-23T14:51:14;4.95;;;3.75;;
60582;SDS011;46415;47.536;19.066;2023-01-23T14:54:23;3.87;;;3.17;;
60582;SDS011;46415;47.536;19.066;2023-01-23T14:57:30;3.80;;;3.40;;
60582;SDS011;46415;47.536;19.066;2023-01-23T15:00:33;4.47;;;3.53;;
60582;SDS011;46415;47.536;19.066;2023-01-23T15:03:41;2.95;;;2.65;;
60582;SDS011;46415;47.536;19.066;2023-01-23T15:09:53;3.62;;;2.97;;
60582;SDS011;46415;47.536;19.066;2023-01-23T15:12:57;3.25;;;2.90;;
60582;SDS011;46415;47.536;19.066;2023-01-23T15:16:04;4.80;;;3.25;;
60582;SDS011;46415;47.536;19.066;2023-01-23T15:19:20;4.00;;;3.15;;
60582;SDS011;46415;47.536;19.066;2023-01-23T15:22:24;3.65;;;2.85;;
60582;SDS011;46415;47.536;19.066;2023-01-23T15:25:31;3.72;;;3.28;;
60582;SDS011;46415;47.536;19.066;2023-01-23T15:28:39;4.85;;;2.78;;
60582;SDS011;46415;47.536;19.066;2023-01-23T15:31:50;4.22;;;3.35;;
60582;SDS011;46415;47.536;19.066;2023-01-23T15:34:54;3.37;;;3.08;;
60582;SDS011;46415;47.536;19.066;2023-01-23T15:37:59;4.70;;;3.08;;
60582;SDS011;46415;47.536;19.066;2023-01-23T15:41:07;3.87;;;3.15;;
60582;SDS011;46415;47.536;19.066;2023-01-23T15:44:15;4.30;;;3.50;;
60582;SDS011;46415;47.536;19.066;2023-01-23T15:50:23;5.03;;;3.40;;
60582;SDS011;46415;47.536;19.066;2023-01-23T15:53:28;6.25;;;3.70;;
60582;SDS011;46415;47.536;19.066;2023-01-23T15:56:32;6.75;;;3.70;;
60582;SDS011;46415;47.536;19.066;2023-01-23T15:59:35;13.75;;;4.05;;
60582;SDS011;46415;47.536;19.066;2023-01-23T16:02:39;7.97;;;4.18;;
60582;SDS011;46415;47.536;19.066;2023-01-23T16:08:59;6.78;;;3.58;;
60582;SDS011;46415;47.536;19.066;2023-01-23T16:12:08;6.30;;;3.97;;
60582;SDS011;46415;47.536;19.066;2023-01-23T16:15:18;5.72;;;3.97;;
60582;SDS011;46415;47.536;19.066;2023-01-23T16:18:29;6.12;;;4.10;;
60582;SDS011;46415;47.536;19.066;2023-01-23T16:21:32;10.95;;;4.70;;
60582;SDS011;46415;47.536;19.066;2023-01-23T16:24:36;7.47;;;5.25;;
60582;SDS011;46415;47.536;19.066;2023-01-23T16:27:41;6.37;;;4.35;;
60582;SDS011;46415;47.536;19.066;2023-01-23T16:30:45;6.62;;;4.18;;
60582;SDS011;46415;47.536;19.066;2023-01-23T16:33:48;6.65;;;4.57;;
60582;SDS011;46415;47.536;19.066;2023-01-23T16:36:52;7.75;;;5.00;;
60582;SDS011;46415;47.536;19.066;2023-01-23T16:39:58;6.18;;;4.03;;
60582;SDS011;46415;47.536;19.066;2023-01-23T16:43:03;7.07;;;4.40;;
60582;SDS011;46415;47.536;19.066;2023-01-23T16:46:06;8.15;;;4.82;;
60582;SDS011;46415;47.536;19.066;2023-01-23T16:49:10;5.22;;;4.37;;
60582;SDS011;46415;47.536;19.066;2023-01-23T16:52:13;12.02;;;4.80;;
60582;SDS011;46415;47.536;19.066;2023-01-23T16:55:18;6.93;;;4.97;;
60582;SDS011;46415;47.536;19.066;2023-01-23T16:58:25;4.72;;;3.80;;
60582;SDS011;46415;47.536;19.066;2023-01-23T17:01:32;5.35;;;4.50;;
60582;SDS011;46415;47.536;19.066;2023-01-23T17:04:38;6.43;;;5.05;;
60582;SDS011;46415;47.536;19.066;2023-01-23T17:07:42;6.20;;;4.70;;
60582;SDS011;46415;47.536;19.066;2023-01-23T17:10:45;6.12;;;4.72;;
60582;SDS011;46415;47.536;19.066;2023-01-23T17:13:57;6.53;;;4.37;;
60582;SDS011;46415;47.536;19.066;2023-01-23T17:17:03;7.37;;;4.57;;
60582;SDS011;46415;47.536;19.066;2023-01-23T17:20:12;9.20;;;5.60;;
60582;SDS011;46415;47.536;19.066;2023-01-23T17:23:16;5.62;;;4.78;;
60582;SDS011;46415;47.536;19.066;2023-01-23T17:26:19;7.12;;;4.78;;
60582;SDS011;46415;47.536;19.066;2023-01-23T17:29:23;9.07;;;5.15;;
60582;SDS011;46415;47.536;19.066;2023-01-23T17:32:33;7.90;;;5.07;;
60582;SDS011;46415;47.536;19.066;2023-01-23T17:35:37;8.15;;;5.70;;
60582;SDS011;46415;47.536;19.066;2023-01-23T17:38:40;7.72;;;5.43;;
60582;SDS011;46415;47.536;19.066;2023-01-23T17:41:43;9.57;;;5.43;;
60582;SDS011;46415;47.536;19.066;2023-01-23T17:44:46;8.63;;;6.10;;
60582;SDS011;46415;47.536;19.066;2023-01-23T17:47:50;8.98;;;5.75;;
60582;SDS011;46415;47.536;19.066;2023-01-23T17:50:57;8.00;;;5.53;;
60582;SDS011;46415;47.536;19.066;2023-01-23T17:54:00;9.30;;;6.47;;
60582;SDS011;46415;47.536;19.066;2023-01-23T17:57:03;7.28;;;5.18;;
60582;SDS011;46415;47.536;19.066;2023-01-23T18:00:07;8.95;;;5.70;;
60582;SDS011;46415;47.536;19.066;2023-01-23T18:03:14;6.68;;;5.18;;
60582;SDS011;46415;47.536;19.066;2023-01-23T18:06:19;10.45;;;5.82;;
60582;SDS011;46415;47.536;19.066;2023-01-23T18:09:23;8.23;;;5.55;;
60582;SDS011;46415;47.536;19.066;2023-01-23T18:16:16;8.25;;;5.28;;
60582;SDS011;46415;47.536;19.066;2023-01-23T18:19:26;6.32;;;4.57;;
60582;SDS011;46415;47.536;19.066;2023-01-23T18:22:29;7.32;;;5.87;;
60582;SDS011;46415;47.536;19.066;2023-01-23T18:25:33;7.87;;;4.78;;
60582;SDS011;46415;47.536;19.066;2023-01-23T18:28:40;7.35;;;4.97;;
60582;SDS011;46415;47.536;19.066;2023-01-23T18:32:05;7.07;;;4.85;;
60582;SDS011;46415;47.536;19.066;2023-01-23T18:45:21;8.70;;;5.40;;
60582;SDS011;46415;47.536;19.066;2023-01-23T18:48:29;9.40;;;5.70;;
60582;SDS011;46415;47.536;19.066;2023-01-23T18:58:04;10.00;;;5.18;;
60582;SDS011;46415;47.536;19.066;2023-01-23T19:01:14;9.30;;;6.40;;
60582;SDS011;46415;47.536;19.066;2023-01-23T19:04:34;11.63;;;6.20;;
60582;SDS011;46415;47.536;19.066;2023-01-23T19:07:45;7.30;;;5.68;;
60582;SDS011;46415;47.536;19.066;2023-01-23T19:10:50;7.20;;;5.85;;
60582;SDS011;46415;47.536;19.066;2023-01-23T19:24:02;7.22;;;5.37;;
60582;SDS011;46415;47.536;19.066;2023-01-23T19:27:15;9.68;;;5.90;;
60582;SDS011;46415;47.536;19.066;2023-01-23T19:30:25;9.60;;;5.55;;
60582;SDS011;46415;47.536;19.066;2023-01-23T19:33:28;8.30;;;5.55;;
60582;SDS011;46415;47.536;19.066;2023-01-23T19:36:32;8.88;;;5.53;;
60582;SDS011;46415;47.536;19.066;2023-01-23T19:39:37;7.95;;;5.30;;
60582;SDS011;46415;47.536;19.066;2023-01-23T19:42:40;8.68;;;5.37;;
60582;SDS011;46415;47.536;19.066;2023-01-23T19:46:05;9.70;;;5.53;;
60582;SDS011;46415;47.536;19.066;2023-01-23T19:49:10;6.25;;;4.78;;
60582;SDS011;46415;47.536;19.066;2023-01-23T19:52:16;7.10;;;5.20;;
60582;SDS011;46415;47.536;19.066;2023-01-23T19:55:24;7.62;;;5.53;;
60582;SDS011;46415;47.536;19.066;2023-01-23T19:58:32;10.48;;;5.55;;
60582;SDS011;46415;47.536;19.066;2023-01-23T20:01:43;10.85;;;6.37;;
60582;SDS011;46415;47.536;19.066;2023-01-23T20:04:50;10.15;;;6.75;;
60582;SDS011;46415;47.536;19.066;2023-01-23T20:07:53;11.60;;;5.43;;
60582;SDS011;46415;47.536;19.066;2023-01-23T20:10:56;8.15;;;5.28;;